Catrua — EAWY — position and weather

sailwx.info

Track history (hours):
 
Tides and Currents Weather Stations Pressure Air Temp Water Temp Dewpoint Dewpoint Depression Visibility Wind Speed Wind Dir Waves Ship Positions

Catrua

Last reported at 2017-Oct-15 18:11 UTC. Time now 2017-Nov-24 18:41 UTC.
Position N 39°13' W 009°48'.
Warning: this ship's position is 40 days out of date.

Length 27 m.

Type: Fishing. MMSI: 224355000.

Date/timePositionNaut miles runAvg speedWind from/ knotsBaromVisibWave heightAir tempDewpointWater temp
2017-Oct-15 18:11N 39°13' W 009°48'3 9.6
2017-Oct-15 17:55N 39°11' W 009°49'4 9.3
2017-Oct-15 17:31N 39°07' W 009°50'5 9.6
2017-Oct-15 17:01N 39°02' W 009°51'5 9.9
2017-Oct-15 16:30N 38°58' W 009°52'5 9.4
2017-Oct-15 16:00N 38°53' W 009°54'5 9.9
2017-Oct-15 15:30N 38°48' W 009°55'1 2.5
2017-Oct-15 15:00N 38°47' W 009°55'2 1.9
2017-Oct-15 14:01N 38°45' W 009°56'1 2.2
2017-Oct-15 13:30N 38°44' W 009°56'2 3.7
2017-Oct-15 12:54N 38°42' W 009°54'1 2.1
2017-Oct-15 12:27N 38°43' W 009°55'1 2.2
2017-Oct-15 12:00N 38°44' W 009°55'1 2.2
2017-Oct-15 11:29N 38°45' W 009°56'2 3.9
2017-Oct-15 11:00N 38°46' W 009°57'1 1.9
2017-Oct-15 10:30N 38°46' W 009°56'1 2.4
2017-Oct-15 10:00N 38°45' W 009°56'3 2.9
2017-Oct-15 08:56N 38°42' W 009°54'2 4.1
2017-Oct-15 08:30N 38°44' W 009°54'0 0.8
2017-Oct-15 08:01N 38°44' W 009°54'1 2.4
2017-Oct-15 07:31N 38°45' W 009°55'2 3.8
2017-Oct-15 07:00N 38°46' W 009°57'3 2.1
2017-Oct-15 05:44N 38°44' W 009°55'1 4.0
2017-Oct-15 05:29N 38°44' W 009°54'4 8.4
2017-Oct-15 05:00N 38°41' W 009°50'5 9.7
2017-Oct-15 04:30N 38°38' W 009°45'5 9.9
2017-Oct-15 04:01N 38°34' W 009°42'510.0
2017-Oct-15 03:31N 38°30' W 009°38'510.1
2017-Oct-15 03:00N 38°25' W 009°35'5 9.8
2017-Oct-15 02:30N 38°21' W 009°31'5 9.7
2017-Oct-15 02:01N 38°17' W 009°28'5 9.8
2017-Oct-15 01:30N 38°13' W 009°24'510.0
2017-Oct-15 01:00N 38°09' W 009°21'5 9.8
2017-Oct-15 00:30N 38°05' W 009°17'5 9.8
2017-Oct-15 00:00N 38°01' W 009°14'1 2.1
2017-Oct-14 23:30N 37°60' W 009°13'1 2.5
2017-Oct-14 23:01N 37°59' W 009°13'1 3.0
2017-Oct-14 22:30N 37°57' W 009°14'1 2.9
2017-Oct-14 22:01N 37°56' W 009°14'1 3.0
2017-Oct-14 21:30N 37°54' W 009°14'2 4.1
2017-Oct-14 21:00N 37°52' W 009°14'1 2.9
2017-Oct-14 20:31N 37°54' W 009°14'2 3.1
2017-Oct-14 20:01N 37°55' W 009°14'2 3.1
2017-Oct-14 19:30N 37°57' W 009°13'2 3.2
2017-Oct-14 19:00N 37°58' W 009°13'2 3.3
2017-Oct-14 18:31N 37°57' W 009°15'1 1.8
2017-Oct-14 18:00N 37°56' W 009°15'1 2.6
2017-Oct-14 17:31N 37°55' W 009°15'1 2.8
2017-Oct-14 17:01N 37°54' W 009°16'1 2.9
2017-Oct-14 16:30N 37°52' W 009°16'1 2.7
2017-Oct-14 16:00N 37°51' W 009°16'1 2.3
2017-Oct-14 15:31N 37°50' W 009°15'1 2.9
2017-Oct-14 15:01N 37°51' W 009°15'1 2.9
2017-Oct-14 14:31N 37°53' W 009°15'1 3.0
2017-Oct-14 14:01N 37°54' W 009°14'  
2017-Oct-11 18:57N 37°35' W 009°19'2 2.4
2017-Oct-11 17:56N 37°32' W 009°18'33 1.8
2017-Oct-11 00:01N 38°05' W 009°17'5 9.7
2017-Oct-10 23:31N 38°09' W 009°20'5 9.2
2017-Oct-10 23:01N 38°13' W 009°24'5 9.2
2017-Oct-10 22:31N 38°17' W 009°27'5 9.5
2017-Oct-10 22:01N 38°21' W 009°30'5 9.2
2017-Oct-10 21:30N 38°25' W 009°34'5 9.2
2017-Oct-10 21:00N 38°29' W 009°37'5 9.2
2017-Oct-10 20:30N 38°32' W 009°40'5 9.6
2017-Oct-10 20:00N 38°37' W 009°43'2 4.5
2017-Oct-10 19:30N 38°39' W 009°44'0 0.6
2017-Oct-10 19:00N 38°39' W 009°44'1 2.5
2017-Oct-10 18:31N 38°40' W 009°45'1 2.5
2017-Oct-10 18:00N 38°41' W 009°46'1 2.3
2017-Oct-10 17:30N 38°42' W 009°47'1 2.3
2017-Oct-10 17:00N 38°42' W 009°48'2 3.2
2017-Oct-10 16:30N 38°44' W 009°49'2 4.0
2017-Oct-10 16:00N 38°46' W 009°50'1 2.4
2017-Oct-10 15:31N 38°45' W 009°48'2 3.1
2017-Oct-10 15:01N 38°44' W 009°47'1 1.5
2017-Oct-10 14:00N 38°43' W 009°45'2 3.1
2017-Oct-10 13:30N 38°44' W 009°47'2 3.1
2017-Oct-10 13:00N 38°45' W 009°49'0 0.3
2017-Oct-10 12:30N 38°45' W 009°49'1 3.0
2017-Oct-10 12:00N 38°44' W 009°47'2 3.9
2017-Oct-10 11:31N 38°43' W 009°45'1 2.8
2017-Oct-10 11:01N 38°44' W 009°47'2 3.0
2017-Oct-10 10:30N 38°45' W 009°48'2 3.7
2017-Oct-10 10:00N 38°45' W 009°50'1 1.8
2017-Oct-10 09:30N 38°45' W 009°51'1 2.9
2017-Oct-10 09:00N 38°45' W 009°53'1 3.0
2017-Oct-10 08:30N 38°45' W 009°55'0 0.9
2017-Oct-10 08:00N 38°45' W 009°54'2 3.2
2017-Oct-10 07:30N 38°45' W 009°52'1 1.0
2017-Oct-10 07:00N 38°45' W 009°52'1 2.9
2017-Oct-10 06:30N 38°45' W 009°53'2 3.7
2017-Oct-10 06:00N 38°46' W 009°56'1 1.9
2017-Oct-10 05:31N 38°46' W 009°56'0 0.8
2017-Oct-10 04:58N 38°46' W 009°56'3 7.4
2017-Oct-10 04:30N 38°48' W 009°59'4 8.2
2017-Oct-10 04:00N 38°51' W 010°03'4 8.7
2017-Oct-10 03:30N 38°54' W 010°08'1 1.2
2017-Oct-10 03:00N 38°54' W 010°08'1 2.0
2017-Oct-10 02:30N 38°54' W 010°09'1 2.1
2017-Oct-10 02:00N 38°54' W 010°10'1 2.5
2017-Oct-10 01:30N 38°55' W 010°12'1 1.2
2017-Oct-10 01:00N 38°55' W 010°12'1 2.3
2017-Oct-10 00:25N 38°55' W 010°11'2 3.6
2017-Oct-10 00:00N 38°55' W 010°09'0 0.9
2017-Oct-09 23:30N 38°55' W 010°09'1 2.2
2017-Oct-09 23:01N 38°55' W 010°11'2 3.0
2017-Oct-09 22:30N 38°54' W 010°12'1 1.0
2017-Oct-09 21:59N 38°55' W 010°12'1 2.4
2017-Oct-09 21:29N 38°55' W 010°11'1 2.3
2017-Oct-09 21:00N 38°55' W 010°09'2 3.8
2017-Oct-09 20:30N 38°55' W 010°07'1 1.9
2017-Oct-09 20:00N 38°56' W 010°06'0 0.6
2017-Oct-09 19:31N 38°56' W 010°06'0 0.9
2017-Oct-09 19:01N 38°56' W 010°06'0 0.6
2017-Oct-09 18:30N 38°57' W 010°06'1 1.8
2017-Oct-09 18:01N 38°57' W 010°05'2 3.2
2017-Oct-09 17:31N 38°58' W 010°04'2 3.2
2017-Oct-09 17:00N 38°60' W 010°03'2 3.0
2017-Oct-09 16:30N 39°01' W 010°03'1 2.9
2017-Oct-09 16:00N 39°03' W 010°03'1 2.9
2017-Oct-09 15:30N 39°04' W 010°04'2 3.0
2017-Oct-09 15:01N 39°05' W 010°06'1 2.9
2017-Oct-09 14:30N 39°06' W 010°07'1 2.9
2017-Oct-09 14:00N 39°07' W 010°07'1 3.0
2017-Oct-09 13:30N 39°08' W 010°05'2 3.1
2017-Oct-09 13:00N 39°09' W 010°04'2 4.2
2017-Oct-09 12:31N 39°10' W 010°01'1 1.8
2017-Oct-09 12:00N 39°10' W 010°00'2 3.1
2017-Oct-09 11:18N 39°11' W 009°58'1 3.0
2017-Oct-09 10:59N 39°11' W 009°57'1 3.0
2017-Oct-09 10:31N 39°12' W 009°55'1 2.9
2017-Oct-09 10:01N 39°13' W 009°54'1 2.9
2017-Oct-09 09:31N 39°15' W 009°54'2 3.0
2017-Oct-09 09:00N 39°16' W 009°53'2 3.1
2017-Oct-09 08:23N 39°18' W 009°52'2 3.3
2017-Oct-09 07:53N 39°19' W 009°51'2 3.2
2017-Oct-09 07:18N 39°20' W 009°49'1 3.1
2017-Oct-09 07:00N 39°21' W 009°48'2 3.7
2017-Oct-09 06:30N 39°23' W 009°47'5 9.0
2017-Oct-09 06:00N 39°27' W 009°46'5 9.3
2017-Oct-09 05:30N 39°32' W 009°44'18 7.5
2017-Oct-09 03:09N 39°49' W 009°39'0 1.9
2017-Oct-09 03:00N 39°49' W 009°39'1 2.2
2017-Oct-09 02:30N 39°50' W 009°40'  
Track history (hours):
 
Tides and Currents Weather Stations Pressure Air Temp Water Temp Dewpoint Dewpoint Depression Visibility Wind Speed Wind Dir Waves Ship Positions

Catrua

Last reported at 2017-Oct-15 18:11 UTC. Time now 2017-Nov-24 18:41 UTC.
Position N 39°13' W 009°48'.
Warning: this ship's position is 40 days out of date.

Length 27 m.

Type: Fishing. MMSI: 224355000.

Date/timePositionNaut miles runAvg speedWind from/ knotsBaromVisibWave heightAir tempDewpointWater temp
2017-Oct-15 18:11N 39°13' W 009°48'3 9.6
2017-Oct-15 17:55N 39°11' W 009°49'4 9.3
2017-Oct-15 17:31N 39°07' W 009°50'5 9.6
2017-Oct-15 17:01N 39°02' W 009°51'5 9.9
2017-Oct-15 16:30N 38°58' W 009°52'5 9.4
2017-Oct-15 16:00N 38°53' W 009°54'5 9.9
2017-Oct-15 15:30N 38°48' W 009°55'1 2.5
2017-Oct-15 15:00N 38°47' W 009°55'2 1.9
2017-Oct-15 14:01N 38°45' W 009°56'1 2.2
2017-Oct-15 13:30N 38°44' W 009°56'2 3.7
2017-Oct-15 12:54N 38°42' W 009°54'1 2.1
2017-Oct-15 12:27N 38°43' W 009°55'1 2.2
2017-Oct-15 12:00N 38°44' W 009°55'1 2.2
2017-Oct-15 11:29N 38°45' W 009°56'2 3.9
2017-Oct-15 11:00N 38°46' W 009°57'1 1.9
2017-Oct-15 10:30N 38°46' W 009°56'1 2.4
2017-Oct-15 10:00N 38°45' W 009°56'3 2.9
2017-Oct-15 08:56N 38°42' W 009°54'2 4.1
2017-Oct-15 08:30N 38°44' W 009°54'0 0.8
2017-Oct-15 08:01N 38°44' W 009°54'1 2.4
2017-Oct-15 07:31N 38°45' W 009°55'2 3.8
2017-Oct-15 07:00N 38°46' W 009°57'3 2.1
2017-Oct-15 05:44N 38°44' W 009°55'1 4.0
2017-Oct-15 05:29N 38°44' W 009°54'4 8.4
2017-Oct-15 05:00N 38°41' W 009°50'5 9.7
2017-Oct-15 04:30N 38°38' W 009°45'5 9.9
2017-Oct-15 04:01N 38°34' W 009°42'510.0
2017-Oct-15 03:31N 38°30' W 009°38'510.1
2017-Oct-15 03:00N 38°25' W 009°35'5 9.8
2017-Oct-15 02:30N 38°21' W 009°31'5 9.7
2017-Oct-15 02:01N 38°17' W 009°28'5 9.8
2017-Oct-15 01:30N 38°13' W 009°24'510.0
2017-Oct-15 01:00N 38°09' W 009°21'5 9.8
2017-Oct-15 00:30N 38°05' W 009°17'5 9.8
2017-Oct-15 00:00N 38°01' W 009°14'1 2.1
2017-Oct-14 23:30N 37°60' W 009°13'1 2.5
2017-Oct-14 23:01N 37°59' W 009°13'1 3.0
2017-Oct-14 22:30N 37°57' W 009°14'1 2.9
2017-Oct-14 22:01N 37°56' W 009°14'1 3.0
2017-Oct-14 21:30N 37°54' W 009°14'2 4.1
2017-Oct-14 21:00N 37°52' W 009°14'1 2.9
2017-Oct-14 20:31N 37°54' W 009°14'2 3.1
2017-Oct-14 20:01N 37°55' W 009°14'2 3.1
2017-Oct-14 19:30N 37°57' W 009°13'2 3.2
2017-Oct-14 19:00N 37°58' W 009°13'2 3.3
2017-Oct-14 18:31N 37°57' W 009°15'1 1.8
2017-Oct-14 18:00N 37°56' W 009°15'1 2.6
2017-Oct-14 17:31N 37°55' W 009°15'1 2.8
2017-Oct-14 17:01N 37°54' W 009°16'1 2.9
2017-Oct-14 16:30N 37°52' W 009°16'1 2.7
2017-Oct-14 16:00N 37°51' W 009°16'1 2.3
2017-Oct-14 15:31N 37°50' W 009°15'1 2.9
2017-Oct-14 15:01N 37°51' W 009°15'1 2.9
2017-Oct-14 14:31N 37°53' W 009°15'1 3.0
2017-Oct-14 14:01N 37°54' W 009°14'  
2017-Oct-11 18:57N 37°35' W 009°19'2 2.4
2017-Oct-11 17:56N 37°32' W 009°18'33 1.8
2017-Oct-11 00:01N 38°05' W 009°17'5 9.7
2017-Oct-10 23:31N 38°09' W 009°20'5 9.2
2017-Oct-10 23:01N 38°13' W 009°24'5 9.2
2017-Oct-10 22:31N 38°17' W 009°27'5 9.5
2017-Oct-10 22:01N 38°21' W 009°30'5 9.2
2017-Oct-10 21:30N 38°25' W 009°34'5 9.2
2017-Oct-10 21:00N 38°29' W 009°37'5 9.2
2017-Oct-10 20:30N 38°32' W 009°40'5 9.6
2017-Oct-10 20:00N 38°37' W 009°43'2 4.5
2017-Oct-10 19:30N 38°39' W 009°44'0 0.6
2017-Oct-10 19:00N 38°39' W 009°44'1 2.5
2017-Oct-10 18:31N 38°40' W 009°45'1 2.5
2017-Oct-10 18:00N 38°41' W 009°46'1 2.3
2017-Oct-10 17:30N 38°42' W 009°47'1 2.3
2017-Oct-10 17:00N 38°42' W 009°48'2 3.2
2017-Oct-10 16:30N 38°44' W 009°49'2 4.0
2017-Oct-10 16:00N 38°46' W 009°50'1 2.4
2017-Oct-10 15:31N 38°45' W 009°48'2 3.1
2017-Oct-10 15:01N 38°44' W 009°47'1 1.5
2017-Oct-10 14:00N 38°43' W 009°45'2 3.1
2017-Oct-10 13:30N 38°44' W 009°47'2 3.1
2017-Oct-10 13:00N 38°45' W 009°49'0 0.3
2017-Oct-10 12:30N 38°45' W 009°49'1 3.0
2017-Oct-10 12:00N 38°44' W 009°47'2 3.9
2017-Oct-10 11:31N 38°43' W 009°45'1 2.8
2017-Oct-10 11:01N 38°44' W 009°47'2 3.0
2017-Oct-10 10:30N 38°45' W 009°48'2 3.7
2017-Oct-10 10:00N 38°45' W 009°50'1 1.8
2017-Oct-10 09:30N 38°45' W 009°51'1 2.9
2017-Oct-10 09:00N 38°45' W 009°53'1 3.0
2017-Oct-10 08:30N 38°45' W 009°55'0 0.9
2017-Oct-10 08:00N 38°45' W 009°54'2 3.2
2017-Oct-10 07:30N 38°45' W 009°52'1 1.0
2017-Oct-10 07:00N 38°45' W 009°52'1 2.9
2017-Oct-10 06:30N 38°45' W 009°53'2 3.7
2017-Oct-10 06:00N 38°46' W 009°56'1 1.9
2017-Oct-10 05:31N 38°46' W 009°56'0 0.8
2017-Oct-10 04:58N 38°46' W 009°56'3 7.4
2017-Oct-10 04:30N 38°48' W 009°59'4 8.2
2017-Oct-10 04:00N 38°51' W 010°03'4 8.7
2017-Oct-10 03:30N 38°54' W 010°08'1 1.2
2017-Oct-10 03:00N 38°54' W 010°08'1 2.0
2017-Oct-10 02:30N 38°54' W 010°09'1 2.1
2017-Oct-10 02:00N 38°54' W 010°10'1 2.5
2017-Oct-10 01:30N 38°55' W 010°12'1 1.2
2017-Oct-10 01:00N 38°55' W 010°12'1 2.3
2017-Oct-10 00:25N 38°55' W 010°11'2 3.6
2017-Oct-10 00:00N 38°55' W 010°09'0 0.9
2017-Oct-09 23:30N 38°55' W 010°09'1 2.2
2017-Oct-09 23:01N 38°55' W 010°11'2 3.0
2017-Oct-09 22:30N 38°54' W 010°12'1 1.0
2017-Oct-09 21:59N 38°55' W 010°12'1 2.4
2017-Oct-09 21:29N 38°55' W 010°11'1 2.3
2017-Oct-09 21:00N 38°55' W 010°09'2 3.8
2017-Oct-09 20:30N 38°55' W 010°07'1 1.9
2017-Oct-09 20:00N 38°56' W 010°06'0 0.6
2017-Oct-09 19:31N 38°56' W 010°06'0 0.9
2017-Oct-09 19:01N 38°56' W 010°06'0 0.6
2017-Oct-09 18:30N 38°57' W 010°06'1 1.8
2017-Oct-09 18:01N 38°57' W 010°05'2 3.2
2017-Oct-09 17:31N 38°58' W 010°04'2 3.2
2017-Oct-09 17:00N 38°60' W 010°03'2 3.0
2017-Oct-09 16:30N 39°01' W 010°03'1 2.9
2017-Oct-09 16:00N 39°03' W 010°03'1 2.9
2017-Oct-09 15:30N 39°04' W 010°04'2 3.0
2017-Oct-09 15:01N 39°05' W 010°06'1 2.9
2017-Oct-09 14:30N 39°06' W 010°07'1 2.9
2017-Oct-09 14:00N 39°07' W 010°07'1 3.0
2017-Oct-09 13:30N 39°08' W 010°05'2 3.1
2017-Oct-09 13:00N 39°09' W 010°04'2 4.2
2017-Oct-09 12:31N 39°10' W 010°01'1 1.8
2017-Oct-09 12:00N 39°10' W 010°00'2 3.1
2017-Oct-09 11:18N 39°11' W 009°58'1 3.0
2017-Oct-09 10:59N 39°11' W 009°57'1 3.0
2017-Oct-09 10:31N 39°12' W 009°55'1 2.9
2017-Oct-09 10:01N 39°13' W 009°54'1 2.9
2017-Oct-09 09:31N 39°15' W 009°54'2 3.0
2017-Oct-09 09:00N 39°16' W 009°53'2 3.1
2017-Oct-09 08:23N 39°18' W 009°52'2 3.3
2017-Oct-09 07:53N 39°19' W 009°51'2 3.2
2017-Oct-09 07:18N 39°20' W 009°49'1 3.1
2017-Oct-09 07:00N 39°21' W 009°48'2 3.7
2017-Oct-09 06:30N 39°23' W 009°47'5 9.0
2017-Oct-09 06:00N 39°27' W 009°46'5 9.3
2017-Oct-09 05:30N 39°32' W 009°44'18 7.5
2017-Oct-09 03:09N 39°49' W 009°39'0 1.9
2017-Oct-09 03:00N 39°49' W 009°39'1 2.2
2017-Oct-09 02:30N 39°50' W 009°40'  

Dump ship's entire track history